| Date | Time | Temp. (oF) | Dew Point (oF) | Rel. Hum. (%) | Press. (in.) | Wind Dir. | Wind Speed (mph) | Hourly Rainfall (in.) |
|
|---|---|---|---|---|---|---|---|---|---|
| 1 | 06/13 | 00:00 | 68 | 59 | 74 | 30.06 | SSE | 7 | 0.00 |
| 2 | 06/12 | 23:00 | 68 | 58 | 72 | 30.07 | SSE | 6 | 0.00 |
| 3 | 06/12 | 22:00 | 66 | 57 | 73 | 30.08 | SE | 3 | 0.00 |
| 4 | 06/12 | 21:00 | 69 | 57 | 66 | 30.07 | SE | 4 | 0.00 |
| 5 | 06/12 | 20:00 | 71 | 55 | 58 | 30.06 | S | 2 | 0.00 |
| 6 | 06/12 | 19:00 | 73 | 54 | 53 | 30.06 | S | 3 | 0.00 |
| 7 | 06/12 | 18:00 | 74 | 49 | 43 | 30.07 | SSW | 9 | 0.00 |
| 8 | 06/12 | 17:00 | 75 | 52 | 46 | 30.10 | S | 7 | 0.00 |
| 9 | 06/12 | 16:00 | 75 | 54 | 49 | 30.13 | S | 3 | 0.00 |
| 10 | 06/12 | 15:00 | 74 | 53 | 49 | 30.16 | ESE | 3 | 0.00 |
| 11 | 06/12 | 14:00 | 73 | 51 | 47 | 30.18 | ESE | 9 | 0.00 |
| 12 | 06/12 | 13:00 | 72 | 51 | 49 | 30.19 | S | 12 | 0.00 |
| 13 | 06/12 | 12:00 | 70 | 53 | 57 | 30.22 | S | 5 | 0.00 |
| 14 | 06/12 | 11:00 | 68 | 54 | 62 | 30.23 | S | 4 | 0.00 |
| 15 | 06/12 | 10:00 | 64 | 56 | 77 | 30.23 | S | 4 | 0.00 |
| 16 | 06/12 | 09:00 | 59 | 55 | 89 | 30.22 | SW | 2 | 0.00 |
| 17 | 06/12 | 08:00 | 54 | 53 | 97 | 30.21 | ESE | 1 | 0.00 |
| 18 | 06/12 | 07:00 | 50 | 49 | 99 | 30.22 | SSE | 1 | 0.00 |
| 19 | 06/12 | 06:00 | 48 | 47 | 98 | 30.21 | SSE | 1 | 0.00 |
| 20 | 06/12 | 05:00 | 49 | 48 | 97 | 30.22 | SSE | 1 | 0.00 |
| 21 | 06/12 | 04:00 | 50 | 48 | 96 | 30.21 | SSE | 1 | 0.00 |
| 22 | 06/12 | 03:00 | 51 | 49 | 95 | 30.20 | SSE | 1 | 0.00 |
| 23 | 06/12 | 02:00 | 52 | 50 | 94 | 30.20 | SSE | 1 | 0.00 |
| 24 | 06/12 | 01:00 | 53 | 51 | 93 | 30.19 | SSE | 1 | 0.00 |